createdAt,value
2023-02-19T00:01:45.984Z,5.70
2023-02-19T00:04:22.149Z,5.70
2023-02-19T00:06:48.501Z,5.70
2023-02-19T00:09:17.839Z,5.70
2023-02-19T00:11:44.339Z,5.70
2023-02-19T00:14:14.830Z,5.70
2023-02-19T00:16:41.442Z,5.70
2023-02-19T00:19:11.809Z,5.70
2023-02-19T00:21:38.536Z,5.70
2023-02-19T00:24:06.701Z,5.70
2023-02-19T00:26:33.449Z,5.70
2023-02-19T00:28:59.837Z,5.80
2023-02-19T00:31:34.446Z,5.70
2023-02-19T00:34:03.496Z,5.80
2023-02-19T00:36:30.368Z,5.70
2023-02-19T00:38:57.492Z,5.70
2023-02-19T00:41:26.115Z,5.70
2023-02-19T00:44:06.428Z,5.80
2023-02-19T00:46:38.524Z,5.80
2023-02-19T00:49:05.978Z,5.80
2023-02-19T00:51:33.800Z,5.80
2023-02-19T00:54:00.015Z,5.80
2023-02-19T00:56:27.596Z,5.80
2023-02-19T00:58:54.110Z,5.80
2023-02-19T01:01:20.808Z,5.80
2023-02-19T01:03:47.969Z,5.80
2023-02-19T01:06:17.802Z,5.80
2023-02-19T01:08:44.585Z,5.80
2023-02-19T01:11:12.868Z,5.80
2023-02-19T01:13:39.763Z,5.80
2023-02-19T01:16:13.328Z,5.80
2023-02-19T01:18:39.940Z,5.80
2023-02-19T01:21:07.813Z,5.80
2023-02-19T01:23:35.486Z,5.80
2023-02-19T01:26:11.245Z,5.80
2023-02-19T01:28:38.671Z,5.80
2023-02-19T01:31:06.309Z,5.80
2023-02-19T01:33:33.012Z,5.80
2023-02-19T01:35:59.338Z,5.80
2023-02-19T01:38:26.028Z,5.80
2023-02-19T01:40:57.147Z,5.80
2023-02-19T01:43:23.334Z,7.20
2023-02-19T01:45:50.013Z,5.80
2023-02-19T01:48:22.413Z,5.80
2023-02-19T01:50:54.341Z,5.80
2023-02-19T01:53:25.578Z,5.80
2023-02-19T01:55:53.759Z,5.80
2023-02-19T01:58:20.854Z,5.80
2023-02-19T02:00:51.140Z,5.80
2023-02-19T02:03:19.767Z,5.80
2023-02-19T02:05:55.950Z,5.80
2023-02-19T02:10:15.987Z,5.80
2023-02-19T02:12:43.645Z,5.80
2023-02-19T02:15:10.908Z,5.80
2023-02-19T02:17:57.912Z,5.80
2023-02-19T02:21:52.417Z,7.50
2023-02-19T02:25:56.264Z,5.80
2023-02-19T02:30:09.923Z,5.80
2023-02-19T02:36:21.179Z,5.80
2023-02-19T02:38:48.001Z,5.80
2023-02-19T02:41:14.391Z,5.80
2023-02-19T02:43:40.995Z,5.80
2023-02-19T02:46:11.312Z,5.80
2023-02-19T02:48:56.393Z,5.80
2023-02-19T02:51:40.128Z,5.80
2023-02-19T02:54:46.586Z,5.80
2023-02-19T02:57:14.126Z,5.80
2023-02-19T02:59:41.413Z,5.80
2023-02-19T03:02:27.757Z,5.90
2023-02-19T03:05:45.794Z,5.80
2023-02-19T03:08:33.582Z,5.90
2023-02-19T03:11:29.293Z,5.90
2023-02-19T03:14:22.785Z,5.90
2023-02-19T03:18:12.392Z,5.90
2023-02-19T03:20:39.905Z,5.90
2023-02-19T03:23:07.246Z,5.90
2023-02-19T03:25:52.597Z,5.90
2023-02-19T03:29:23.151Z,5.90
2023-02-19T03:31:53.735Z,5.90
2023-02-19T03:34:26.156Z,5.90
2023-02-19T03:37:01.502Z,6.00
2023-02-19T03:39:28.698Z,5.90
2023-02-19T03:42:02.249Z,6.00
2023-02-19T03:47:26.531Z,6.00
2023-02-19T03:51:46.771Z,6.00
2023-02-19T03:54:18.724Z,6.00
2023-02-19T03:56:54.278Z,6.00
2023-02-19T03:59:31.520Z,5.90
2023-02-19T04:02:10.915Z,5.90
2023-02-19T04:04:41.022Z,6.00
2023-02-19T04:07:08.872Z,5.90
2023-02-19T04:09:37.654Z,6.00
2023-02-19T04:12:05.727Z,6.00
2023-02-19T04:15:34.513Z,6.00
2023-02-19T04:18:05.877Z,6.00
2023-02-19T04:20:40.170Z,6.00
2023-02-19T04:23:08.417Z,6.00
2023-02-19T04:25:35.667Z,6.00
2023-02-19T04:28:04.193Z,6.00
2023-02-19T04:30:31.303Z,6.00
2023-02-19T04:32:58.587Z,6.00
2023-02-19T04:35:26.360Z,6.00
2023-02-19T04:37:54.213Z,6.00
2023-02-19T04:40:28.893Z,6.00
2023-02-19T04:42:57.598Z,6.00
2023-02-19T04:45:26.269Z,6.00
2023-02-19T04:47:52.539Z,6.00
2023-02-19T04:50:53.919Z,6.00
2023-02-19T04:53:30.359Z,6.00
2023-02-19T04:56:14.394Z,6.00
2023-02-19T04:58:43.377Z,6.00
2023-02-19T05:01:11.058Z,5.90
2023-02-19T05:03:38.411Z,5.90
2023-02-19T05:06:12.645Z,5.90
2023-02-19T05:08:39.112Z,5.90
2023-02-19T05:11:06.595Z,5.90
2023-02-19T05:13:34.808Z,5.90
2023-02-19T05:16:20.572Z,5.80
2023-02-19T05:18:48.624Z,5.90
2023-02-19T05:21:18.064Z,5.90
2023-02-19T05:23:46.558Z,5.80
2023-02-19T05:26:23.096Z,5.80
2023-02-19T05:28:51.155Z,5.80
2023-02-19T05:31:18.939Z,5.90
2023-02-19T05:33:49.500Z,5.80
2023-02-19T05:36:16.706Z,5.80
2023-02-19T05:38:43.261Z,5.90
2023-02-19T05:41:19.023Z,5.90
2023-02-19T05:43:47.662Z,5.80
2023-02-19T05:46:17.478Z,5.80
2023-02-19T05:48:45.837Z,5.80
2023-02-19T05:51:14.965Z,5.90
2023-02-19T05:53:42.059Z,5.90
2023-02-19T05:58:01.184Z,5.80
2023-02-19T06:00:29.063Z,5.80
2023-02-19T06:02:56.344Z,5.80
2023-02-19T06:05:23.682Z,5.80
2023-02-19T06:07:51.529Z,5.80
2023-02-19T06:10:18.814Z,5.80
2023-02-19T06:12:46.238Z,5.80
2023-02-19T06:15:13.559Z,5.80
2023-02-19T06:17:41.364Z,5.80
2023-02-19T06:20:10.047Z,5.80
2023-02-19T06:22:38.305Z,5.80
2023-02-19T06:25:07.356Z,5.80
2023-02-19T06:27:36.365Z,5.90
2023-02-19T06:30:03.878Z,5.80
2023-02-19T06:32:31.665Z,5.90
2023-02-19T06:34:59.147Z,5.90
2023-02-19T06:37:26.079Z,5.90
2023-02-19T06:39:53.175Z,5.80
2023-02-19T06:42:20.109Z,5.80
2023-02-19T06:44:47.085Z,5.70
2023-02-19T06:47:14.213Z,5.60
2023-02-19T06:49:42.829Z,5.40
2023-02-19T06:52:09.523Z,5.20
2023-02-19T06:54:38.056Z,5.10
2023-02-19T06:57:05.360Z,5.00
2023-02-19T06:59:32.621Z,4.90
2023-02-19T07:02:00.591Z,4.90
2023-02-19T07:04:30.983Z,4.80
2023-02-19T07:06:59.893Z,4.80
2023-02-19T07:09:29.520Z,4.80
2023-02-19T07:12:05.445Z,4.70
2023-02-19T07:14:34.402Z,4.70
2023-02-19T07:17:02.722Z,4.70
2023-02-19T07:19:29.381Z,4.60
2023-02-19T07:21:59.826Z,4.70
2023-02-19T07:24:34.524Z,4.60
2023-02-19T07:27:02.667Z,4.60
2023-02-19T07:30:46.872Z,4.60
2023-02-19T07:33:13.046Z,4.50
2023-02-19T07:35:48.069Z,4.50
2023-02-19T07:38:18.359Z,4.40
2023-02-19T07:40:58.986Z,4.30
2023-02-19T07:43:26.343Z,4.30
2023-02-19T07:45:52.948Z,4.20
2023-02-19T07:48:19.166Z,4.20
2023-02-19T07:50:53.090Z,4.20
2023-02-19T07:53:19.833Z,4.10
2023-02-19T07:55:46.183Z,4.00
2023-02-19T07:58:12.305Z,3.80
2023-02-19T08:00:39.276Z,3.70
2023-02-19T08:03:05.788Z,3.50
2023-02-19T08:05:37.572Z,3.50
2023-02-19T08:08:11.112Z,3.40
2023-02-19T08:10:55.847Z,3.40
2023-02-19T08:13:22.576Z,3.30
2023-02-19T08:19:21.010Z,3.20
2023-02-19T08:21:48.635Z,3.10
2023-02-19T08:24:14.841Z,3.10
2023-02-19T08:26:41.259Z,3.10
2023-02-19T08:29:07.613Z,3.10
2023-02-19T08:31:34.437Z,3.00
2023-02-19T08:34:01.298Z,3.00
2023-02-19T08:36:27.663Z,3.00
2023-02-19T08:38:53.898Z,3.00
2023-02-19T08:41:20.788Z,2.90
2023-02-19T08:43:47.213Z,2.80
2023-02-19T08:46:13.409Z,2.80
2023-02-19T08:48:39.779Z,3.10
2023-02-19T08:51:11.704Z,2.90
2023-02-19T08:53:39.220Z,2.90
2023-02-19T08:56:06.863Z,3.10
2023-02-19T08:58:33.714Z,3.00
2023-02-19T09:01:00.355Z,3.10
2023-02-19T09:03:26.957Z,3.30
2023-02-19T09:05:53.210Z,3.30
2023-02-19T09:08:19.908Z,0.40
2023-02-19T09:10:56.158Z,3.50
2023-02-19T09:13:22.516Z,3.60
2023-02-19T09:15:49.644Z,3.80
2023-02-19T09:18:17.130Z,3.80
2023-02-19T09:20:43.288Z,3.80
2023-02-19T09:23:09.516Z,3.90
2023-02-19T09:25:35.793Z,4.00
2023-02-19T09:28:02.345Z,4.30
2023-02-19T09:30:28.564Z,4.50
2023-02-19T09:32:55.093Z,4.80
2023-02-19T09:35:23.180Z,4.80
2023-02-19T09:37:49.423Z,4.80
2023-02-19T09:40:21.323Z,4.70
2023-02-19T09:42:47.857Z,5.00
2023-02-19T09:45:21.917Z,5.20
2023-02-19T09:47:48.390Z,5.60
2023-02-19T09:50:19.500Z,5.70
2023-02-19T09:52:56.497Z,5.90
2023-02-19T09:55:32.632Z,6.00
2023-02-19T09:57:58.992Z,5.90
2023-02-19T10:00:29.751Z,6.10
2023-02-19T10:03:15.137Z,6.30
2023-02-19T10:05:42.123Z,6.50
2023-02-19T10:08:12.742Z,6.10
2023-02-19T10:10:38.969Z,6.50
2023-02-19T10:13:21.006Z,6.60
2023-02-19T10:15:53.773Z,6.40
2023-02-19T10:18:23.158Z,6.20
2023-02-19T10:20:50.700Z,6.00
2023-02-19T10:23:17.232Z,6.10
2023-02-19T10:25:56.984Z,6.20
2023-02-19T10:28:28.457Z,6.00
2023-02-19T10:30:56.639Z,5.90
2023-02-19T10:33:23.034Z,5.80
2023-02-19T10:36:06.858Z,5.60
2023-02-19T10:38:39.828Z,5.60
2023-02-19T10:41:22.411Z,5.50
2023-02-19T10:44:38.843Z,5.60
2023-02-19T10:47:05.371Z,5.60
2023-02-19T10:49:34.431Z,5.60
2023-02-19T10:52:22.147Z,5.70
2023-02-19T10:54:55.865Z,5.60
2023-02-19T10:57:33.687Z,5.70
2023-02-19T11:03:31.779Z,5.80
2023-02-19T11:06:04.617Z,5.80
2023-02-19T11:08:36.856Z,5.90
2023-02-19T11:11:03.424Z,6.00
2023-02-19T11:13:32.276Z,6.00
2023-02-19T11:15:58.693Z,5.80
2023-02-19T11:18:30.479Z,5.80
2023-02-19T11:21:00.778Z,5.70
2023-02-19T11:23:37.692Z,5.60
2023-02-19T11:26:11.594Z,5.70
2023-02-19T11:28:42.853Z,5.70
2023-02-19T11:31:31.901Z,5.60
2023-02-19T11:34:34.579Z,5.20
2023-02-19T11:37:15.488Z,5.30
2023-02-19T11:39:43.083Z,5.40
2023-02-19T11:45:38.038Z,5.30
2023-02-19T11:48:48.228Z,5.00
2023-02-19T11:52:58.079Z,5.40
2023-02-19T11:56:33.998Z,5.70
2023-02-19T11:59:35.888Z,5.90
2023-02-19T12:05:29.043Z,6.20
2023-02-19T12:09:53.242Z,7.30
2023-02-19T12:15:49.340Z,8.10
2023-02-19T12:25:15.941Z,7.90
2023-02-19T12:28:27.878Z,7.80
2023-02-19T12:38:08.082Z,7.60
2023-02-19T12:43:38.317Z,7.60
2023-02-19T12:46:21.594Z,7.50
2023-02-19T12:48:59.548Z,6.90
2023-02-19T12:51:38.275Z,6.80
2023-02-19T12:54:15.351Z,6.50
2023-02-19T12:57:02.466Z,6.60
2023-02-19T13:01:25.833Z,6.70
2023-02-19T13:04:20.410Z,6.70
2023-02-19T13:09:53.633Z,6.50
2023-02-19T13:12:30.762Z,6.40
2023-02-19T13:15:02.866Z,6.10
2023-02-19T13:17:42.348Z,5.80
2023-02-19T13:20:31.869Z,5.70
2023-02-19T13:23:29.844Z,5.70
2023-02-19T13:26:24.399Z,5.80
2023-02-19T13:35:14.272Z,5.90
2023-02-19T13:37:41.655Z,5.80
2023-02-19T13:40:37.744Z,6.20
2023-02-19T13:43:06.775Z,6.10
2023-02-19T13:45:42.944Z,6.00
2023-02-19T13:48:32.920Z,6.00
2023-02-19T13:54:40.933Z,6.00
2023-02-19T13:59:42.297Z,6.40
2023-02-19T14:02:12.943Z,6.20
2023-02-19T14:05:15.525Z,6.10
2023-02-19T14:07:56.662Z,5.80
2023-02-19T14:12:06.041Z,5.90
2023-02-19T14:14:51.337Z,5.90
2023-02-19T14:21:00.773Z,5.90
2023-02-19T14:23:27.395Z,5.60
2023-02-19T14:26:00.029Z,5.40
2023-02-19T14:28:45.868Z,5.30
2023-02-19T14:31:37.150Z,5.40
2023-02-19T14:34:25.861Z,5.40
2023-02-19T14:37:00.960Z,5.50
2023-02-19T14:39:33.036Z,5.40
2023-02-19T14:42:22.705Z,5.40
2023-02-19T14:44:57.657Z,5.50
2023-02-19T14:47:27.230Z,5.40
2023-02-19T14:50:03.906Z,5.40
2023-02-19T14:52:49.872Z,5.30
2023-02-19T14:55:40.958Z,5.20
2023-02-19T14:58:13.609Z,5.00
2023-02-19T15:00:42.084Z,4.90
2023-02-19T15:03:31.962Z,4.90
2023-02-19T15:06:09.124Z,4.80
2023-02-19T15:08:47.198Z,4.90
2023-02-19T15:11:22.589Z,4.80
2023-02-19T15:13:59.194Z,4.80
2023-02-19T15:16:26.125Z,4.80
2023-02-19T15:18:53.458Z,4.80
2023-02-19T15:21:29.167Z,4.70
2023-02-19T15:24:01.985Z,4.60
2023-02-19T15:26:42.546Z,4.50
2023-02-19T15:29:13.931Z,4.40
2023-02-19T15:31:48.519Z,4.30
2023-02-19T15:34:20.790Z,4.20
2023-02-19T15:36:48.084Z,4.10
2023-02-19T15:39:58.481Z,4.10
2023-02-19T15:42:29.680Z,4.10
2023-02-19T15:45:09.293Z,4.10
2023-02-19T15:47:44.705Z,4.00
2023-02-19T15:51:18.338Z,4.00
2023-02-19T15:53:53.900Z,3.80
2023-02-19T15:56:27.346Z,3.80
2023-02-19T15:59:01.204Z,3.70
2023-02-19T16:01:38.416Z,3.80
2023-02-19T16:04:12.556Z,3.80
2023-02-19T16:07:01.614Z,3.80
2023-02-19T16:09:46.648Z,3.80
2023-02-19T16:12:23.730Z,3.70
2023-02-19T16:14:50.848Z,3.40
2023-02-19T16:17:20.720Z,3.60
2023-02-19T16:19:58.572Z,3.50
2023-02-19T16:22:29.969Z,3.50
2023-02-19T16:25:03.991Z,3.30
2023-02-19T16:27:34.916Z,3.00
2023-02-19T16:33:37.362Z,3.10
2023-02-19T16:36:25.688Z,6.00
2023-02-19T16:42:25.102Z,2.60
2023-02-19T16:44:51.746Z,2.60
2023-02-19T16:47:26.411Z,2.70
2023-02-19T16:49:52.674Z,2.60
2023-02-19T16:52:19.175Z,2.70
2023-02-19T16:54:47.068Z,2.60
2023-02-19T16:57:14.887Z,2.70
2023-02-19T16:59:41.052Z,2.80
2023-02-19T17:02:09.622Z,2.90
2023-02-19T17:04:36.433Z,2.80
2023-02-19T17:07:03.059Z,2.80
2023-02-19T17:09:29.449Z,2.80
2023-02-19T17:11:55.640Z,2.70
2023-02-19T17:14:23.183Z,2.70
2023-02-19T17:16:50.941Z,2.70
2023-02-19T17:19:18.680Z,2.70
2023-02-19T17:21:46.211Z,2.80
2023-02-19T17:24:13.664Z,2.90
2023-02-19T17:26:39.895Z,2.90
2023-02-19T17:29:08.676Z,2.90
2023-02-19T17:31:35.005Z,2.90
2023-02-19T17:34:02.824Z,2.90
2023-02-19T17:36:31.232Z,2.80
2023-02-19T17:39:02.040Z,2.70
2023-02-19T17:41:31.146Z,2.60
2023-02-19T17:43:57.929Z,2.60
2023-02-19T17:46:26.052Z,2.60
2023-02-19T17:48:52.474Z,2.50
2023-02-19T17:51:19.602Z,2.50
2023-02-19T17:53:46.489Z,2.50
2023-02-19T17:56:25.360Z,2.50
2023-02-19T17:58:52.541Z,2.60
2023-02-19T18:01:18.737Z,2.50
2023-02-19T18:03:45.814Z,2.50
2023-02-19T18:06:12.133Z,2.50
2023-02-19T18:08:38.694Z,2.50
2023-02-19T18:11:06.290Z,2.60
2023-02-19T18:13:36.521Z,2.60
2023-02-19T18:16:06.085Z,2.80
2023-02-19T18:18:38.768Z,2.90
2023-02-19T18:21:08.994Z,3.00
2023-02-19T18:23:36.937Z,3.00
2023-02-19T18:26:08.504Z,3.00
2023-02-19T18:28:35.873Z,3.10
2023-02-19T18:31:03.691Z,3.10
2023-02-19T18:33:31.882Z,3.10
2023-02-19T18:35:58.926Z,3.00
2023-02-19T18:38:25.991Z,3.10
2023-02-19T18:40:53.339Z,3.00
2023-02-19T18:43:21.007Z,3.00
2023-02-19T18:45:50.925Z,3.00
2023-02-19T18:48:17.444Z,3.00
2023-02-19T18:50:44.179Z,2.90
2023-02-19T18:53:12.146Z,2.80
2023-02-19T18:55:39.401Z,2.80
2023-02-19T18:58:06.912Z,2.70
2023-02-19T19:00:33.596Z,2.60
2023-02-19T19:03:01.040Z,2.60
2023-02-19T19:05:29.555Z,2.40
2023-02-19T19:07:58.630Z,2.30
2023-02-19T19:10:24.886Z,4.40
2023-02-19T19:12:51.169Z,2.20
2023-02-19T19:15:18.805Z,2.10
2023-02-19T19:17:46.810Z,2.00
2023-02-19T19:20:14.374Z,2.00
2023-02-19T19:22:42.246Z,1.90
2023-02-19T19:25:11.975Z,1.90
2023-02-19T19:27:39.751Z,1.80
2023-02-19T19:30:07.398Z,1.70
2023-02-19T19:32:34.526Z,1.60
2023-02-19T19:35:01.716Z,1.60
2023-02-19T19:37:28.809Z,1.60
2023-02-19T19:39:56.490Z,1.50
2023-02-19T19:42:24.807Z,1.40
2023-02-19T19:44:52.186Z,1.40
2023-02-19T19:47:19.262Z,1.40
2023-02-19T19:49:48.270Z,1.40
2023-02-19T19:54:44.548Z,1.20
2023-02-19T19:57:19.029Z,1.30
2023-02-19T19:59:52.346Z,1.30
2023-02-19T20:02:25.002Z,1.30
2023-02-19T20:04:51.930Z,1.20
2023-02-19T20:07:19.080Z,1.00
2023-02-19T20:09:48.793Z,1.10
2023-02-19T20:12:17.369Z,1.20
2023-02-19T20:14:45.304Z,1.20
2023-02-19T20:17:15.841Z,1.20
2023-02-19T20:19:47.261Z,1.10
2023-02-19T20:22:21.131Z,1.10
2023-02-19T20:24:51.735Z,1.00
2023-02-19T20:27:19.037Z,1.00
2023-02-19T20:29:46.876Z,1.00
2023-02-19T20:32:13.972Z,1.00
2023-02-19T20:34:41.266Z,1.00
2023-02-19T20:37:08.005Z,1.20
2023-02-19T20:39:34.871Z,1.20
2023-02-19T20:42:01.903Z,1.20
2023-02-19T20:44:30.172Z,1.20
2023-02-19T20:47:00.187Z,1.20
2023-02-19T20:49:37.299Z,1.20
2023-02-19T20:52:07.506Z,1.10
2023-02-19T20:54:35.381Z,1.00
2023-02-19T20:57:04.351Z,1.00
2023-02-19T20:59:34.987Z,0.90
2023-02-19T21:02:07.154Z,0.90
2023-02-19T21:07:03.164Z,0.70
2023-02-19T21:09:32.625Z,0.80
2023-02-19T21:12:00.336Z,0.80
2023-02-19T21:16:53.898Z,0.70
2023-02-19T21:19:21.833Z,0.70
2023-02-19T21:21:48.050Z,0.70
2023-02-19T21:24:14.664Z,0.70
2023-02-19T21:26:41.728Z,0.80
2023-02-19T21:29:10.164Z,0.90
2023-02-19T21:31:41.441Z,0.80
2023-02-19T21:34:09.163Z,0.80
2023-02-19T21:36:36.450Z,0.90
2023-02-19T21:39:05.336Z,0.90
2023-02-19T21:41:34.908Z,0.90
2023-02-19T21:44:02.127Z,0.90
2023-02-19T21:46:30.468Z,0.90
2023-02-19T21:48:57.209Z,1.00
2023-02-19T21:51:30.287Z,0.80
2023-02-19T21:53:57.166Z,0.90
2023-02-19T21:56:27.388Z,0.80
2023-02-19T21:58:56.342Z,0.80
2023-02-19T22:01:26.748Z,0.80
2023-02-19T22:03:54.263Z,0.80
2023-02-19T22:06:26.164Z,0.80
2023-02-19T22:08:57.027Z,0.80
2023-02-19T22:11:25.405Z,0.80
2023-02-19T22:13:54.830Z,0.70
2023-02-19T22:16:23.764Z,0.80
2023-02-19T22:18:52.435Z,0.70
2023-02-19T22:21:20.793Z,0.80
2023-02-19T22:23:49.135Z,0.70
2023-02-19T22:26:23.790Z,0.70
2023-02-19T22:28:50.741Z,0.70
2023-02-19T22:31:20.002Z,0.70
2023-02-19T22:36:32.672Z,0.60
2023-02-19T22:39:03.520Z,0.60
2023-02-19T22:41:30.919Z,0.50
2023-02-19T22:44:03.061Z,0.50
2023-02-19T22:46:31.769Z,0.50
2023-02-19T22:49:01.876Z,0.50
2023-02-19T22:51:29.969Z,0.50
2023-02-19T22:53:58.412Z,0.40
2023-02-19T22:56:25.892Z,0.40
2023-02-19T22:58:54.071Z,0.40
2023-02-19T23:01:20.848Z,0.40
2023-02-19T23:03:54.640Z,0.30
2023-02-19T23:06:34.486Z,0.20
2023-02-19T23:09:09.732Z,0.20
2023-02-19T23:11:38.333Z,0.20
2023-02-19T23:14:08.337Z,0.20
2023-02-19T23:16:38.257Z,0.30
2023-02-19T23:19:05.786Z,0.20
2023-02-19T23:21:32.634Z,0.20
2023-02-19T23:23:59.102Z,0.20
2023-02-19T23:26:25.439Z,0.10
2023-02-19T23:28:51.818Z,0.10
2023-02-19T23:31:20.276Z,0.10
2023-02-19T23:33:47.452Z,0.10
2023-02-19T23:36:14.803Z,0.00
2023-02-19T23:38:44.639Z,0.00
2023-02-19T23:41:12.586Z,0.00
2023-02-19T23:43:38.906Z,-0.10
2023-02-19T23:46:05.148Z,-0.10
2023-02-19T23:48:31.407Z,0.70
2023-02-19T23:50:57.564Z,0.00
2023-02-19T23:53:24.893Z,0.00
2023-02-19T23:55:51.728Z,0.00
2023-02-19T23:58:20.620Z,-0.10
